createdAt,value
2023-04-04T00:01:09.629Z,96053.94
2023-04-04T00:03:37.693Z,96051.03
2023-04-04T00:06:05.664Z,96047.97
2023-04-04T00:08:34.745Z,96051.03
2023-04-04T00:11:02.793Z,96046.72
2023-04-04T00:13:30.851Z,96045.09
2023-04-04T00:15:58.874Z,96038.72
2023-04-04T00:18:36.158Z,96049.56
2023-04-04T00:21:04.031Z,96048.75
2023-04-04T00:23:31.738Z,96044.88
2023-04-04T00:26:00.819Z,96039.31
2023-04-04T00:28:28.625Z,96025.75
2023-04-04T00:30:56.694Z,96024.13
2023-04-04T00:33:24.572Z,96033.81
2023-04-04T00:35:53.053Z,96029.50
2023-04-04T00:38:21.013Z,96020.22
2023-04-04T00:40:51.905Z,96013.88
2023-04-04T00:43:21.112Z,96006.50
2023-04-04T00:45:48.878Z,96006.72
2023-04-04T00:48:16.863Z,96010.41
2023-04-04T00:50:44.541Z,96016.38
2023-04-04T00:53:12.223Z,96016.16
2023-04-04T00:55:40.779Z,96006.94
2023-04-04T00:58:08.967Z,96009.84
2023-04-04T01:00:38.901Z,95999.59
2023-04-04T01:03:10.225Z,96003.91
2023-04-04T01:05:37.891Z,96000.00
2023-04-04T01:08:05.780Z,96001.03
2023-04-04T01:10:34.149Z,96000.22
2023-04-04T01:13:02.230Z,95993.63
2023-04-04T01:15:30.402Z,96002.03
2023-04-04T01:18:03.012Z,95995.69
2023-04-04T01:20:33.284Z,95996.28
2023-04-04T01:23:03.620Z,95996.88
2023-04-04T01:25:33.864Z,96001.00
2023-04-04T01:28:01.815Z,95998.75
2023-04-04T01:30:33.498Z,95988.09
2023-04-04T01:33:09.350Z,95984.16
2023-04-04T01:35:42.360Z,95989.88
2023-04-04T01:38:25.785Z,95995.00
2023-04-04T01:40:58.752Z,95987.00
2023-04-04T01:43:26.522Z,95983.13
2023-04-04T01:45:54.256Z,95979.63
2023-04-04T01:48:22.329Z,95978.38
2023-04-04T01:50:50.056Z,95981.06
2023-04-04T01:53:17.778Z,95969.94
2023-04-04T01:55:45.520Z,95980.59
2023-04-04T01:58:14.997Z,95981.81
2023-04-04T02:00:42.904Z,95979.16
2023-04-04T02:03:10.696Z,95977.94
2023-04-04T02:05:38.397Z,95983.84
2023-04-04T02:08:06.618Z,95984.81
2023-04-04T02:10:34.327Z,95975.03
2023-04-04T02:13:02.105Z,95982.19
2023-04-04T02:15:31.216Z,95977.31
2023-04-04T02:18:00.578Z,95977.28
2023-04-04T02:20:29.731Z,95981.34
2023-04-04T02:22:57.900Z,95982.38
2023-04-04T02:25:26.183Z,95981.53
2023-04-04T02:27:53.882Z,95973.56
2023-04-04T02:30:21.794Z,95981.50
2023-04-04T02:32:50.861Z,95969.84
2023-04-04T02:35:18.593Z,95972.31
2023-04-04T02:37:47.905Z,95977.81
2023-04-04T02:40:15.927Z,95976.38
2023-04-04T02:42:44.909Z,95964.28
2023-04-04T02:45:14.456Z,95969.59
2023-04-04T02:47:43.248Z,95972.06
2023-04-04T02:50:12.989Z,95973.06
2023-04-04T02:52:40.712Z,95972.66
2023-04-04T02:55:09.464Z,95966.31
2023-04-04T02:57:37.182Z,95967.09
2023-04-04T03:00:07.030Z,95963.44
2023-04-04T03:02:35.010Z,95966.69
2023-04-04T03:05:03.210Z,95966.88
2023-04-04T03:07:32.750Z,95964.63
2023-04-04T03:10:00.635Z,95969.34
2023-04-04T03:12:28.394Z,95968.53
2023-04-04T03:14:56.260Z,95962.34
2023-04-04T03:17:24.063Z,95955.56
2023-04-04T03:19:51.702Z,95958.03
2023-04-04T03:22:19.484Z,95960.69
2023-04-04T03:24:48.697Z,95960.69
2023-04-04T03:27:16.428Z,95960.44
2023-04-04T03:29:44.133Z,95959.63
2023-04-04T03:32:11.941Z,95960.44
2023-04-04T03:34:39.687Z,95963.88
2023-04-04T03:37:07.900Z,95964.69
2023-04-04T03:39:35.922Z,95971.03
2023-04-04T03:42:05.192Z,95956.09
2023-04-04T03:44:32.886Z,95962.84
2023-04-04T03:47:00.567Z,95965.50
2023-04-04T03:49:28.273Z,95977.53
2023-04-04T03:51:55.926Z,95975.91
2023-04-04T03:54:23.703Z,95977.75
2023-04-04T03:56:52.916Z,95977.31
2023-04-04T03:59:22.992Z,95980.19
2023-04-04T04:01:51.019Z,95977.09
2023-04-04T04:04:18.811Z,95975.44
2023-04-04T04:06:46.510Z,95978.09
2023-04-04T04:09:14.434Z,95988.28
2023-04-04T04:11:42.513Z,95984.81
2023-04-04T04:14:10.212Z,95989.06
2023-04-04T04:16:42.391Z,95988.84
2023-04-04T04:19:10.686Z,95989.84
2023-04-04T04:21:38.448Z,95985.34
2023-04-04T04:24:06.867Z,95983.09
2023-04-04T04:26:34.555Z,95993.66
2023-04-04T04:29:02.451Z,95981.19
2023-04-04T04:31:30.158Z,95997.28
2023-04-04T04:33:59.377Z,95998.28
2023-04-04T04:36:27.397Z,95998.03
2023-04-04T04:38:55.471Z,96000.13
2023-04-04T04:41:23.198Z,95995.81
2023-04-04T04:43:51.209Z,95992.16
2023-04-04T04:46:18.924Z,95997.94
2023-04-04T04:48:46.709Z,96001.78
2023-04-04T04:51:15.912Z,95995.44
2023-04-04T04:53:43.769Z,95998.47
2023-04-04T04:56:11.645Z,96002.59
2023-04-04T04:58:39.447Z,96004.44
2023-04-04T05:01:07.635Z,96007.41
2023-04-04T05:03:36.092Z,96005.06
2023-04-04T05:06:03.970Z,96004.44
2023-04-04T05:08:33.082Z,96002.81
2023-04-04T05:11:00.986Z,96001.88
2023-04-04T05:13:29.230Z,96006.06
2023-04-04T05:15:58.097Z,96012.41
2023-04-04T05:18:26.487Z,96012.25
2023-04-04T05:20:55.731Z,96006.38
2023-04-04T05:23:25.033Z,96011.97
2023-04-04T05:25:54.312Z,96012.59
2023-04-04T05:28:22.825Z,96011.00
2023-04-04T05:30:50.477Z,96017.59
2023-04-04T05:33:18.158Z,96018.88
2023-04-04T05:35:45.886Z,96018.50
2023-04-04T05:38:13.638Z,96015.66
2023-04-04T05:40:41.548Z,96014.69
2023-04-04T05:43:10.753Z,96017.00
2023-04-04T05:45:40.500Z,96022.81
2023-04-04T05:48:09.049Z,96020.00
2023-04-04T05:50:36.824Z,96021.25
2023-04-04T05:53:04.862Z,96015.34
2023-04-04T05:55:32.619Z,96023.16
2023-04-04T05:58:00.365Z,96018.03
2023-04-04T06:00:29.591Z,96014.78
2023-04-04T06:02:58.519Z,96017.06
2023-04-04T06:05:26.848Z,96010.72
2023-04-04T06:07:54.596Z,96008.91
2023-04-04T06:10:22.475Z,96022.28
2023-04-04T06:12:50.421Z,96013.84
2023-04-04T06:15:18.225Z,96018.78
2023-04-04T06:17:47.475Z,96014.91
2023-04-04T06:20:15.745Z,96019.03
2023-04-04T06:22:43.507Z,96009.81
2023-04-04T06:25:11.402Z,96012.09
2023-04-04T06:27:39.145Z,96014.75
2023-04-04T06:30:10.300Z,96003.91
2023-04-04T06:32:39.916Z,96007.97
2023-04-04T06:35:10.343Z,96001.84
2023-04-04T06:37:38.057Z,96001.22
2023-04-04T06:40:06.673Z,95997.72
2023-04-04T06:42:34.496Z,96003.25
2023-04-04T06:45:02.154Z,96004.69
2023-04-04T06:47:30.351Z,95997.28
2023-04-04T06:49:58.173Z,95997.06
2023-04-04T06:52:27.704Z,95991.47
2023-04-04T06:54:55.425Z,95991.06
2023-04-04T06:57:23.103Z,95993.50
2023-04-04T06:59:50.760Z,95995.13
2023-04-04T07:02:18.530Z,95993.25
2023-04-04T07:04:46.464Z,95994.22
2023-04-04T07:07:14.138Z,95993.81
2023-04-04T07:09:43.574Z,95996.00
2023-04-04T07:12:11.504Z,95987.78
2023-04-04T07:14:39.179Z,95990.84
2023-04-04T07:17:17.112Z,95989.31
2023-04-04T07:19:49.425Z,95984.78
2023-04-04T07:22:17.199Z,95985.97
2023-04-04T07:24:46.272Z,95993.53
2023-04-04T07:27:15.328Z,95995.78
2023-04-04T07:29:43.384Z,95988.28
2023-04-04T07:32:11.108Z,95982.72
2023-04-04T07:34:38.829Z,95982.19
2023-04-04T07:37:06.677Z,95983.94
2023-04-04T07:39:41.994Z,95980.72
2023-04-04T07:42:11.259Z,95982.47
2023-04-04T07:44:38.985Z,95983.81
2023-04-04T07:47:10.366Z,95980.69
2023-04-04T07:49:38.426Z,95980.75
2023-04-04T07:52:06.458Z,95983.78
2023-04-04T07:54:34.193Z,95978.16
2023-04-04T07:57:02.015Z,95970.91
2023-04-04T07:59:31.302Z,95980.28
2023-04-04T08:01:59.029Z,95981.34
2023-04-04T08:04:26.738Z,95976.56
2023-04-04T08:06:54.619Z,95972.81
2023-04-04T08:09:22.330Z,95973.91
2023-04-04T08:11:50.048Z,95973.69
2023-04-04T08:14:17.813Z,95972.66
2023-04-04T08:16:47.328Z,95972.19
2023-04-04T08:19:16.590Z,95972.91
2023-04-04T08:21:45.543Z,95969.72
2023-04-04T08:24:13.327Z,95971.16
2023-04-04T08:26:42.340Z,95971.38
2023-04-04T08:29:11.317Z,95970.09
2023-04-04T08:31:40.564Z,95973.69
2023-04-04T08:34:09.676Z,95974.75
2023-04-04T08:36:37.815Z,95974.16
2023-04-04T08:39:05.585Z,95970.81
2023-04-04T08:41:35.743Z,95974.31
2023-04-04T08:44:04.486Z,95975.44
2023-04-04T08:46:33.020Z,95978.28
2023-04-04T08:49:04.030Z,95979.97
2023-04-04T08:51:35.205Z,95977.66
2023-04-04T08:54:05.088Z,95979.06
2023-04-04T08:56:35.265Z,95981.41
2023-04-04T08:59:03.218Z,95976.47
2023-04-04T09:01:31.583Z,95980.69
2023-04-04T09:03:59.931Z,95968.69
2023-04-04T09:06:28.627Z,95972.44
2023-04-04T09:09:00.423Z,95981.41
2023-04-04T09:11:32.390Z,95974.16
2023-04-04T09:14:04.625Z,95976.38
2023-04-04T09:16:32.727Z,95979.88
2023-04-04T09:19:00.653Z,95970.41
2023-04-04T09:21:29.305Z,95969.47
2023-04-04T09:24:01.675Z,95982.66
2023-04-04T09:26:29.400Z,95979.97
2023-04-04T09:28:57.155Z,95981.72
2023-04-04T09:31:26.090Z,95980.97
2023-04-04T09:33:53.972Z,95980.63
2023-04-04T09:36:22.549Z,95981.53
2023-04-04T09:38:54.640Z,95982.63
2023-04-04T09:41:24.248Z,95986.56
2023-04-04T09:43:52.355Z,95992.34
2023-04-04T09:46:20.835Z,95987.03
2023-04-04T09:48:51.229Z,95985.41
2023-04-04T09:51:18.999Z,95975.94
2023-04-04T09:53:49.543Z,95986.34
2023-04-04T09:56:17.288Z,95989.41
2023-04-04T09:59:02.414Z,95991.22
2023-04-04T10:01:31.587Z,95983.38
2023-04-04T10:03:59.639Z,95993.59
2023-04-04T10:06:28.869Z,95990.19
2023-04-04T10:08:58.353Z,95985.91
2023-04-04T10:11:32.124Z,95996.03
2023-04-04T10:14:03.958Z,95988.00
2023-04-04T10:16:33.459Z,95990.31
2023-04-04T10:19:03.113Z,95983.47
2023-04-04T10:21:31.405Z,95981.19
2023-04-04T10:24:00.351Z,95978.53
2023-04-04T10:26:28.172Z,95980.66
2023-04-04T10:28:56.351Z,95984.81
2023-04-04T10:31:27.430Z,95991.59
2023-04-04T10:34:08.321Z,95983.31
2023-04-04T10:36:45.429Z,95991.38
2023-04-04T10:39:16.142Z,96000.28
2023-04-04T10:41:46.083Z,95992.59
2023-04-04T10:44:24.735Z,95994.22
2023-04-04T10:46:55.823Z,95983.31
2023-04-04T10:49:23.815Z,95985.03
2023-04-04T10:51:56.456Z,95985.28
2023-04-04T10:54:26.480Z,95988.44
2023-04-04T10:56:56.655Z,95974.56
2023-04-04T10:59:26.320Z,95979.63
2023-04-04T11:01:59.113Z,95971.53
2023-04-04T11:04:34.905Z,95971.31
2023-04-04T11:07:13.603Z,95966.53
2023-04-04T11:09:52.297Z,95961.69
2023-04-04T11:12:44.829Z,95958.06
2023-04-04T11:15:14.501Z,95958.13
2023-04-04T11:17:59.155Z,95961.69
2023-04-04T11:20:35.331Z,95967.09
2023-04-04T11:23:16.958Z,95963.25
2023-04-04T11:25:51.663Z,95955.47
2023-04-04T11:28:43.568Z,95951.22
2023-04-04T11:31:32.540Z,95947.97
2023-04-04T11:34:04.831Z,95935.34
2023-04-04T11:36:53.234Z,95939.47
2023-04-04T11:39:29.370Z,95942.72
2023-04-04T11:42:03.733Z,95942.06
2023-04-04T11:44:33.262Z,95944.41
2023-04-04T11:47:11.914Z,95936.69
2023-04-04T11:49:43.071Z,95932.03
2023-04-04T11:52:12.331Z,95933.34
2023-04-04T11:54:40.772Z,95933.41
2023-04-04T11:57:09.650Z,95932.09
2023-04-04T11:59:41.567Z,95922.91
2023-04-04T12:02:10.364Z,95924.81
2023-04-04T12:04:39.805Z,95915.03
2023-04-04T12:07:10.645Z,95935.28
2023-04-04T12:09:39.534Z,95926.25
2023-04-04T12:12:07.982Z,95914.22
2023-04-04T12:14:36.042Z,95926.72
2023-04-04T12:17:04.589Z,95928.38
2023-04-04T12:19:32.730Z,95921.00
2023-04-04T12:22:00.458Z,95922.53
2023-04-04T12:24:29.625Z,95906.41
2023-04-04T12:26:58.454Z,95909.00
2023-04-04T12:29:27.710Z,95908.31
2023-04-04T12:31:58.049Z,95911.31
2023-04-04T12:37:03.860Z,95922.94
2023-04-04T12:39:32.997Z,95917.72
2023-04-04T12:42:03.636Z,95916.38
2023-04-04T12:44:32.569Z,95907.47
2023-04-04T12:47:02.098Z,95914.78
2023-04-04T12:49:31.548Z,95924.13
2023-04-04T12:52:03.828Z,95921.00
2023-04-04T12:54:42.870Z,95924.16
2023-04-04T12:57:12.511Z,95911.69
2023-04-04T12:59:40.669Z,95911.81
2023-04-04T13:02:11.523Z,95912.09
2023-04-04T13:04:39.801Z,95909.34
2023-04-04T13:07:21.994Z,95915.31
2023-04-04T13:09:56.553Z,95909.66
2023-04-04T13:12:24.921Z,95914.41
2023-04-04T13:15:04.390Z,95914.72
2023-04-04T13:17:44.778Z,95903.84
2023-04-04T13:20:13.380Z,95897.72
2023-04-04T13:22:42.133Z,95895.50
2023-04-04T13:25:12.197Z,95899.84
2023-04-04T13:27:40.111Z,95899.91
2023-04-04T13:30:10.334Z,95896.63
2023-04-04T13:32:39.447Z,95902.25
2023-04-04T13:35:08.464Z,95903.94
2023-04-04T13:37:36.453Z,95904.28
2023-04-04T13:40:04.467Z,95898.03
2023-04-04T13:42:33.999Z,95891.63
2023-04-04T13:45:01.837Z,95877.13
2023-04-04T13:47:29.627Z,95879.88
2023-04-04T13:49:57.431Z,95868.94
2023-04-04T13:52:25.366Z,95866.44
2023-04-04T13:54:53.130Z,95871.66
2023-04-04T13:57:20.894Z,95871.84
2023-04-04T13:59:50.064Z,95862.97
2023-04-04T14:02:17.764Z,95866.19
2023-04-04T14:04:45.511Z,95877.78
2023-04-04T14:07:16.247Z,95884.13
2023-04-04T14:09:44.005Z,95892.28
2023-04-04T14:14:40.836Z,95889.81
2023-04-04T14:17:09.906Z,95887.31
2023-04-04T14:19:39.519Z,95881.88
2023-04-04T14:22:07.326Z,95892.81
2023-04-04T14:24:35.105Z,95884.63
2023-04-04T14:27:03.330Z,95881.03
2023-04-04T14:29:31.231Z,95870.81
2023-04-04T14:31:59.141Z,95891.16
2023-04-04T14:34:28.364Z,95893.53
2023-04-04T14:36:56.067Z,95895.31
2023-04-04T14:39:23.932Z,95897.97
2023-04-04T14:41:51.635Z,95906.13
2023-04-04T14:44:21.161Z,95903.88
2023-04-04T14:46:49.020Z,95897.41
2023-04-04T14:49:16.740Z,95891.50
2023-04-04T14:51:46.236Z,95892.22
2023-04-04T14:54:13.968Z,95888.56
2023-04-04T14:56:42.684Z,95883.28
2023-04-04T14:59:10.407Z,95889.56
2023-04-04T15:01:38.319Z,95889.91
2023-04-04T15:04:07.142Z,95895.81
2023-04-04T15:06:37.837Z,95892.28
2023-04-04T15:09:08.044Z,95894.59
2023-04-04T15:11:36.412Z,95901.22
2023-04-04T15:14:04.457Z,95891.13
2023-04-04T15:16:33.288Z,95905.69
2023-04-04T15:19:01.433Z,95892.75
2023-04-04T15:21:29.681Z,95897.31
2023-04-04T15:23:57.376Z,95891.53
2023-04-04T15:26:26.480Z,95896.41
2023-04-04T15:28:54.186Z,95905.41
2023-04-04T15:31:22.066Z,95891.28
2023-04-04T15:33:50.104Z,95902.19
2023-04-04T15:36:17.770Z,95900.66
2023-04-04T15:38:45.505Z,95904.84
2023-04-04T15:41:13.216Z,95906.06
2023-04-04T15:43:42.477Z,95901.47
2023-04-04T15:46:10.340Z,95889.81
2023-04-04T15:48:38.143Z,95900.69
2023-04-04T15:51:06.899Z,95894.63
2023-04-04T15:53:34.635Z,95888.00
2023-04-04T15:56:02.327Z,95892.84
2023-04-04T15:58:30.021Z,95891.34
2023-04-04T16:00:59.088Z,95892.94
2023-04-04T16:03:26.855Z,95890.53
2023-04-04T16:05:54.571Z,95888.53
2023-04-04T16:08:22.206Z,95887.09
2023-04-04T16:10:49.967Z,95886.66
2023-04-04T16:13:17.674Z,95873.59
2023-04-04T16:15:45.527Z,95878.22
2023-04-04T16:18:14.728Z,95867.56
2023-04-04T16:20:42.445Z,95878.81
2023-04-04T16:23:10.319Z,95880.91
2023-04-04T16:25:38.163Z,95871.41
2023-04-04T16:28:06.120Z,95870.41
2023-04-04T16:30:33.818Z,95871.66
2023-04-04T16:33:01.567Z,95870.34
2023-04-04T16:35:32.554Z,95863.03
2023-04-04T16:38:00.199Z,95859.47
2023-04-04T16:40:27.957Z,95852.81
2023-04-04T16:42:55.747Z,95843.50
2023-04-04T16:45:23.553Z,95850.06
2023-04-04T16:47:51.609Z,95844.03
2023-04-04T16:50:19.622Z,95836.81
2023-04-04T16:52:48.597Z,95840.59
2023-04-04T16:55:16.300Z,95840.22
2023-04-04T16:57:44.461Z,95846.16
2023-04-04T17:00:14.261Z,95834.97
2023-04-04T17:02:45.420Z,95832.00
2023-04-04T17:05:13.470Z,95832.81
2023-04-04T17:07:41.454Z,95829.56
2023-04-04T17:10:12.063Z,95840.63
2023-04-04T17:12:40.238Z,95850.03
2023-04-04T17:15:09.049Z,95858.56
2023-04-04T17:17:36.762Z,95861.28
2023-04-04T17:20:05.304Z,95871.69
2023-04-04T17:22:33.063Z,95873.94
2023-04-04T17:25:00.990Z,95872.34
2023-04-04T17:27:30.676Z,95877.84
2023-04-04T17:29:58.581Z,95874.53
2023-04-04T17:32:26.365Z,95881.13
2023-04-04T17:34:56.066Z,95876.34
2023-04-04T17:37:24.113Z,95877.25
2023-04-04T17:39:52.197Z,95874.13
2023-04-04T17:42:19.906Z,95880.72
2023-04-04T17:44:48.950Z,95880.13
2023-04-04T17:47:16.669Z,95884.28
2023-04-04T17:49:44.743Z,95888.50
2023-04-04T17:52:14.228Z,95882.59
2023-04-04T17:54:42.266Z,95889.16
2023-04-04T17:57:10.154Z,95889.84
2023-04-04T17:59:37.908Z,95889.41
2023-04-04T18:02:07.183Z,95888.34
2023-04-04T18:04:34.863Z,95882.28
2023-04-04T18:07:02.807Z,95874.78
2023-04-04T18:09:30.585Z,95876.91
2023-04-04T18:11:58.575Z,95877.25
2023-04-04T18:14:26.355Z,95889.91
2023-04-04T18:16:54.190Z,95884.03
2023-04-04T18:19:23.279Z,95882.25
2023-04-04T18:21:52.989Z,95889.50
2023-04-04T18:24:21.113Z,95888.19
2023-04-04T18:26:48.829Z,95891.50
2023-04-04T18:29:16.529Z,95889.72
2023-04-04T18:31:45.061Z,95889.84
2023-04-04T18:34:15.115Z,95897.91
2023-04-04T18:36:45.116Z,95898.38
2023-04-04T18:39:15.954Z,95895.75
2023-04-04T18:41:44.213Z,95905.00
2023-04-04T18:44:12.051Z,95903.97
2023-04-04T18:46:40.626Z,95908.28
2023-04-04T18:49:08.535Z,95900.09
2023-04-04T18:51:39.712Z,95903.38
2023-04-04T18:54:08.959Z,95903.22
2023-04-04T18:56:38.508Z,95906.28
2023-04-04T18:59:07.201Z,95907.72
2023-04-04T19:01:36.028Z,95907.53
2023-04-04T19:04:04.597Z,95907.13
2023-04-04T19:06:33.963Z,95904.44
2023-04-04T19:09:04.598Z,95908.97
2023-04-04T19:11:33.840Z,95912.66
2023-04-04T19:14:01.603Z,95903.63
2023-04-04T19:16:29.346Z,95899.53
2023-04-04T19:18:57.068Z,95908.34
2023-04-04T19:21:25.286Z,95909.38
2023-04-04T19:23:53.204Z,95913.88
2023-04-04T19:26:21.274Z,95900.97
2023-04-04T19:28:50.686Z,95908.53
2023-04-04T19:31:22.037Z,95909.34
2023-04-04T19:33:51.254Z,95913.66
2023-04-04T19:36:19.004Z,95909.16
2023-04-04T19:38:48.589Z,95918.97
2023-04-04T19:41:33.838Z,95918.53
2023-04-04T19:44:11.528Z,95910.13
2023-04-04T19:46:39.454Z,95909.13
2023-04-04T19:49:11.685Z,95913.19
2023-04-04T19:51:42.753Z,95917.06
2023-04-04T19:54:15.968Z,95916.66
2023-04-04T19:56:50.158Z,95917.91
2023-04-04T19:59:55.660Z,95918.50
2023-04-04T20:02:48.489Z,95913.38
2023-04-04T20:06:04.079Z,95904.56
2023-04-04T20:08:44.194Z,95899.59
2023-04-04T20:11:13.307Z,95905.75
2023-04-04T20:13:42.137Z,95909.19
2023-04-04T20:16:13.310Z,95903.88
2023-04-04T20:18:43.581Z,95902.66
2023-04-04T20:21:13.935Z,95903.47
2023-04-04T20:23:45.579Z,95911.03
2023-04-04T20:26:34.937Z,95904.25
2023-04-04T20:29:03.468Z,95913.06
2023-04-04T20:31:36.105Z,95906.28
2023-04-04T20:34:06.883Z,95910.41
2023-04-04T20:36:42.844Z,95910.78
2023-04-04T20:39:40.561Z,95907.66
2023-04-04T20:42:33.920Z,95909.63
2023-04-04T20:45:12.803Z,95911.28
2023-04-04T20:47:46.236Z,95922.09
2023-04-04T20:50:46.268Z,95912.91
2023-04-04T20:53:21.038Z,95915.94
2023-04-04T20:55:50.544Z,95918.19
2023-04-04T20:58:27.820Z,95913.25
2023-04-04T21:00:57.823Z,95907.72
2023-04-04T21:03:36.064Z,95907.94
2023-04-04T21:06:11.026Z,95911.03
2023-04-04T21:08:42.347Z,95905.91
2023-04-04T21:11:11.380Z,95907.34
2023-04-04T21:13:40.782Z,95914.88
2023-04-04T21:16:11.286Z,95912.63
2023-04-04T21:18:49.009Z,95910.13
2023-04-04T21:21:18.752Z,95914.00
2023-04-04T21:23:49.675Z,95906.16
2023-04-04T21:26:34.576Z,95908.63
2023-04-04T21:29:09.146Z,95910.47
2023-04-04T21:31:38.904Z,95909.44
2023-04-04T21:34:13.194Z,95912.03
2023-04-04T21:36:41.864Z,95905.25
2023-04-04T21:39:13.404Z,95906.09
2023-04-04T21:41:42.309Z,95909.31
2023-04-04T21:44:11.258Z,95907.47
2023-04-04T21:46:41.095Z,95906.44
2023-04-04T21:49:11.374Z,95915.78
2023-04-04T21:51:39.234Z,95909.47
2023-04-04T21:54:07.198Z,95907.00
2023-04-04T21:56:35.032Z,95907.38
2023-04-04T21:59:03.954Z,95910.22
2023-04-04T22:01:31.888Z,95915.53
2023-04-04T22:03:59.963Z,95909.19
2023-04-04T22:06:30.743Z,95902.44
2023-04-04T22:09:01.725Z,95901.16
2023-04-04T22:11:29.869Z,95901.72
2023-04-04T22:14:04.387Z,95907.22
2023-04-04T22:16:36.772Z,95905.78
2023-04-04T22:19:04.885Z,95905.56
2023-04-04T22:21:37.128Z,95902.72
2023-04-04T22:24:06.425Z,95900.63
2023-04-04T22:26:34.692Z,95902.63
2023-04-04T22:29:05.218Z,95902.38
2023-04-04T22:31:34.517Z,95899.31
2023-04-04T22:34:03.135Z,95904.16
2023-04-04T22:36:31.291Z,95894.56
2023-04-04T22:39:00.355Z,95898.78
2023-04-04T22:41:29.041Z,95888.81
2023-04-04T22:43:57.046Z,95891.28
2023-04-04T22:46:25.662Z,95884.06
2023-04-04T22:49:05.422Z,95879.78
2023-04-04T22:51:45.388Z,95884.59
2023-04-04T22:59:28.418Z,95893.47
2023-04-04T23:01:56.401Z,95887.09
2023-04-04T23:04:24.131Z,95893.84
2023-04-04T23:06:51.901Z,95887.03
2023-04-04T23:09:19.564Z,95884.84
2023-04-04T23:11:47.840Z,95888.88
2023-04-04T23:14:15.710Z,95888.50
2023-04-04T23:16:44.899Z,95881.09
2023-04-04T23:19:12.636Z,95882.88
2023-04-04T23:21:40.475Z,95884.81
2023-04-04T23:24:08.350Z,95878.13
2023-04-04T23:26:36.159Z,95886.28
2023-04-04T23:29:03.957Z,95878.88
2023-04-04T23:31:31.837Z,95881.69
2023-04-04T23:34:00.979Z,95878.88
2023-04-04T23:36:28.697Z,95873.28
2023-04-04T23:38:56.414Z,95874.53
2023-04-04T23:41:24.076Z,95875.06
2023-04-04T23:43:53.217Z,95876.06
2023-04-04T23:46:21.328Z,95872.97
2023-04-04T23:48:49.167Z,95874.16
2023-04-04T23:51:18.502Z,95874.34
2023-04-04T23:53:46.217Z,95869.44
2023-04-04T23:56:13.925Z,95864.31
2023-04-04T23:58:41.906Z,95867.63
